Time;durP1;ratioP1;P1;durP2;ratioP2;P2;SDS_P1;SDS_P2;PMS_P1;PMS_P2;Temp;Humidity;BMP_temperature;BMP_pressure;BME280_temperature;BME280_humidity;BME280_pressure;Samples;Min_cycle;Max_cycle;Signal;HPM_P1;HPM_P2
2022/05/31 00:01:58;;;;;;;9.40;6.27;;;10.90;99.90;;;;;;5049976;28;20428;-38
2022/05/31 00:04:24;;;;;;;6.20;5.70;;;10.90;99.90;;;;;;5062284;28;20857;-38
2022/05/31 00:06:50;;;;;;;6.90;5.50;;;11.10;99.90;;;;;;5057780;28;20444;-38
2022/05/31 00:09:16;;;;;;;7.50;5.60;;;10.70;99.90;;;;;;5052139;28;20431;-39
2022/05/31 00:11:42;;;;;;;7.43;6.50;;;10.60;99.90;;;;;;5056736;28;20197;-39
2022/05/31 00:14:09;;;;;;;6.40;5.90;;;10.50;99.90;;;;;;5068948;28;20983;-38
2022/05/31 00:16:35;;;;;;;6.70;6.10;;;10.50;99.90;;;;;;5056459;28;20627;-38
2022/05/31 00:19:01;;;;;;;6.73;6.13;;;10.40;99.90;;;;;;5068818;28;20518;-38
2022/05/31 00:21:49;;;;;;;5.83;5.33;;;10.30;99.90;;;;;;5061893;28;20446;-38
2022/05/31 00:24:18;;;;;;;6.60;6.00;;;10.50;99.90;;;;;;5052898;28;20478;-38
2022/05/31 00:26:44;;;;;;;6.93;6.20;;;10.40;99.90;;;;;;5054270;28;20424;-38
2022/05/31 00:29:11;;;;;;;6.83;6.13;;;10.40;99.90;;;;;;5068740;28;20470;-38
2022/05/31 00:31:43;;;;;;;6.90;6.07;;;10.50;99.90;;;;;;5061106;28;20439;-38
2022/05/31 00:34:10;;;;;;;7.53;6.13;;;10.50;99.90;;;;;;5068565;28;20454;-38
2022/05/31 00:36:37;;;;;;;7.50;5.83;;;10.50;99.90;;;;;;5060911;28;20439;-38
2022/05/31 00:39:04;;;;;;;6.63;5.93;;;10.50;99.90;;;;;;5055840;28;20934;-38
2022/05/31 00:41:31;;;;;;;6.30;5.70;;;10.70;99.90;;;;;;5051208;28;20435;-38
2022/05/31 00:44:03;;;;;;;6.37;5.77;;;10.70;99.90;;;;;;5068253;28;20489;-38
2022/05/31 00:46:46;;;;;;;7.57;6.17;;;10.80;99.90;;;;;;5064385;28;20841;-38
2022/05/31 00:49:16;;;;;;;7.43;6.20;;;10.70;99.90;;;;;;5072418;28;20451;-38
2022/05/31 00:51:46;;;;;;;7.03;6.00;;;10.70;99.90;;;;;;5066846;28;20438;-39
2022/05/31 00:54:16;;;;;;;7.13;6.23;;;10.60;99.90;;;;;;5052976;28;20511;-38
2022/05/31 00:56:43;;;;;;;6.70;5.50;;;10.60;99.90;;;;;;5059798;28;20565;-38
2022/05/31 00:59:14;;;;;;;6.67;6.07;;;10.70;99.90;;;;;;5071949;28;20458;-38
2022/05/31 01:01:42;;;;;;;6.17;5.63;;;10.90;99.90;;;;;;5054343;28;20427;-38
2022/05/31 01:04:09;;;;;;;8.57;6.30;;;10.80;99.90;;;;;;5064065;28;20814;-38
2022/05/31 01:06:36;;;;;;;6.87;6.27;;;10.90;99.90;;;;;;5066243;28;20500;-38
2022/05/31 01:09:03;;;;;;;7.63;6.10;;;11.00;99.90;;;;;;5056748;28;20428;-38
2022/05/31 01:11:31;;;;;;;5.83;5.23;;;11.00;99.90;;;;;;5057612;28;20484;-38
2022/05/31 01:13:57;;;;;;;7.87;5.97;;;11.00;99.90;;;;;;5072188;28;20466;-38
2022/05/31 01:16:23;;;;;;;7.13;6.43;;;11.10;99.90;;;;;;5062663;28;20434;-38
2022/05/31 01:18:49;;;;;;;7.10;6.10;;;11.00;99.90;;;;;;5071416;28;20450;-38
2022/05/31 01:21:15;;;;;;;6.13;5.63;;;10.90;99.90;;;;;;5070701;28;20785;-38
2022/05/31 01:23:47;;;;;;;6.37;5.77;;;10.80;99.90;;;;;;5051850;28;20456;-39
2022/05/31 01:26:35;;;;;;;6.97;5.70;;;10.60;99.90;;;;;;5055822;28;20515;-39
2022/05/31 01:29:19;;;;;;;6.40;5.77;;;10.60;99.90;;;;;;5066279;28;20518;-38
2022/05/31 01:31:55;;;;;;;6.60;5.70;;;10.60;99.90;;;;;;5067567;28;20452;-38
2022/05/31 01:34:35;;;;;;;7.27;6.50;;;10.50;99.90;;;;;;5071339;28;20487;-38
2022/05/31 01:37:01;;;;;;;6.77;6.13;;;10.30;99.90;;;;;;5065504;28;20550;-39
2022/05/31 01:39:41;;;;;;;7.17;6.37;;;10.30;99.90;;;;;;5051825;28;20542;-38
2022/05/31 01:42:19;;;;;;;6.23;5.63;;;10.20;99.90;;;;;;5057239;28;20439;-38
2022/05/31 01:44:50;;;;;;;6.40;5.80;;;10.20;99.90;;;;;;5071229;28;20426;-38
2022/05/31 01:47:16;;;;;;;7.40;6.70;;;10.10;99.90;;;;;;5070646;28;20451;-38
2022/05/31 01:49:46;;;;;;;8.37;7.03;;;10.00;99.90;;;;;;5071277;28;20435;-38
2022/05/31 01:52:13;;;;;;;6.53;5.93;;;10.00;99.90;;;;;;5037758;28;20424;-38
2022/05/31 01:54:39;;;;;;;6.80;6.20;;;9.90;99.90;;;;;;5052466;28;20431;-38
2022/05/31 01:57:08;;;;;;;7.83;6.47;;;9.80;99.90;;;;;;5062202;28;20450;-38
2022/05/31 01:59:41;;;;;;;7.07;6.47;;;9.90;99.90;;;;;;5070659;28;20918;-38
2022/05/31 02:02:07;;;;;;;6.57;6.00;;;9.70;99.90;;;;;;5048563;28;20431;-38
2022/05/31 02:04:32;;;;;;;6.40;5.80;;;9.80;99.90;;;;;;5066518;28;20428;-38
2022/05/31 02:07:19;;;;;;;6.93;6.00;;;9.90;99.90;;;;;;5066428;28;20446;-38
2022/05/31 02:09:48;;;;;;;7.23;5.93;;;10.10;99.90;;;;;;5052288;28;20268;-38
2022/05/31 02:12:15;;;;;;;5.83;5.27;;;10.00;99.90;;;;;;5051034;28;20432;-38
2022/05/31 02:14:41;;;;;;;6.47;5.87;;;10.30;99.90;;;;;;5069469;28;20435;-38
2022/05/31 02:17:08;;;;;;;6.23;5.63;;;10.30;99.90;;;;;;5065239;28;20423;-39
2022/05/31 02:19:34;;;;;;;7.10;5.40;;;10.40;99.90;;;;;;5070891;28;20503;-38
2022/05/31 02:22:06;;;;;;;6.70;6.10;;;10.60;99.90;;;;;;5067044;28;20480;-38
2022/05/31 02:24:33;;;;;;;6.90;6.20;;;10.60;99.90;;;;;;5054272;28;20933;-39
2022/05/31 02:27:00;;;;;;;6.80;5.50;;;10.50;99.90;;;;;;5054091;28;20416;-38
2022/05/31 02:29:28;;;;;;;7.50;5.77;;;10.80;99.90;;;;;;5068941;28;20419;-39
2022/05/31 02:31:56;;;;;;;6.53;5.07;;;11.00;99.90;;;;;;5069815;28;20791;-38
2022/05/31 02:34:24;;;;;;;6.90;5.80;;;10.90;99.90;;;;;;5070466;28;20482;-38
2022/05/31 02:36:51;;;;;;;7.10;5.67;;;10.80;99.90;;;;;;5068872;28;20512;-39
2022/05/31 02:39:17;;;;;;;6.10;5.20;;;10.90;99.90;;;;;;5054446;28;20570;-38
2022/05/31 02:41:44;;;;;;;5.77;5.27;;;11.00;99.90;;;;;;5053370;28;20420;-38
2022/05/31 02:44:10;;;;;;;5.70;5.20;;;10.80;99.90;;;;;;5070375;28;20462;-38
2022/05/31 02:46:36;;;;;;;6.63;5.87;;;10.80;99.90;;;;;;5060247;28;20797;-39
2022/05/31 02:49:04;;;;;;;6.03;5.50;;;10.80;99.90;;;;;;5070171;28;20427;-38
2022/05/31 02:51:41;;;;;;;9.20;5.10;;;10.70;99.90;;;;;;5069758;28;20200;-38
2022/05/31 02:54:08;;;;;;;6.00;5.20;;;10.80;99.90;;;;;;5050677;28;20972;-38
2022/05/31 02:56:33;;;;;;;5.90;5.30;;;10.70;99.90;;;;;;5055959;28;20497;-38
2022/05/31 02:59:00;;;;;;;7.33;5.23;;;10.70;99.90;;;;;;5060236;28;20427;-38
2022/05/31 03:01:31;;;;;;;6.13;5.53;;;10.70;99.90;;;;;;5054766;28;21017;-38
2022/05/31 03:03:58;;;;;;;5.33;4.90;;;10.70;99.90;;;;;;5060116;28;20455;-38
2022/05/31 03:06:24;;;;;;;5.50;4.90;;;10.70;99.90;;;;;;5069971;28;20765;-38
2022/05/31 03:08:51;;;;;;;7.50;5.30;;;10.60;99.90;;;;;;5053267;28;20929;-38
2022/05/31 03:11:41;;;;;;;6.60;5.00;;;10.60;99.90;;;;;;5053546;28;20411;-38
2022/05/31 03:14:09;;;;;;;6.70;5.13;;;10.60;99.90;;;;;;5048848;28;20856;-39
2022/05/31 03:16:40;;;;;;;6.27;5.23;;;10.60;99.90;;;;;;5053700;28;20424;-38
2022/05/31 03:19:09;;;;;;;5.80;5.30;;;10.70;99.90;;;;;;5058898;28;20420;-38
2022/05/31 03:21:40;;;;;;;5.67;5.17;;;10.80;99.90;;;;;;5069519;28;20438;-38
2022/05/31 03:24:15;;;;;;;7.83;5.10;;;10.90;99.90;;;;;;5055232;28;20475;-38
2022/05/31 03:26:42;;;;;;;6.60;4.77;;;10.80;99.90;;;;;;5057220;28;20427;-38
2022/05/31 03:29:09;;;;;;;5.87;5.27;;;10.80;99.90;;;;;;5066819;28;20447;-38
2022/05/31 03:31:36;;;;;;;5.47;4.80;;;10.90;99.90;;;;;;5060655;28;20463;-38
2022/05/31 03:34:02;;;;;;;4.97;4.57;;;10.70;99.90;;;;;;5067267;28;20442;-38
2022/05/31 03:36:28;;;;;;;7.30;4.60;;;10.80;99.90;;;;;;5050616;28;20439;-38
2022/05/31 03:38:53;;;;;;;5.50;4.97;;;10.80;99.90;;;;;;5056314;28;20806;-39
2022/05/31 03:41:19;;;;;;;5.80;5.30;;;10.80;99.90;;;;;;5052947;28;20190;-39
2022/05/31 03:43:45;;;;;;;5.17;4.67;;;10.80;99.90;;;;;;5051743;28;20213;-38
2022/05/31 03:46:15;;;;;;;5.30;4.57;;;10.80;99.90;;;;;;5056145;28;20190;-38
2022/05/31 03:48:40;;;;;;;5.20;4.70;;;10.80;99.90;;;;;;5066527;28;20169;-38
2022/05/31 03:51:09;;;;;;;6.13;5.37;;;10.80;99.90;;;;;;5069162;28;20925;-38
2022/05/31 03:53:35;;;;;;;6.40;5.57;;;10.80;99.90;;;;;;5058812;28;20201;-38
2022/05/31 03:56:03;;;;;;;4.63;4.13;;;10.70;99.90;;;;;;5053648;28;20527;-38
2022/05/31 03:58:28;;;;;;;9.40;5.40;;;10.70;99.90;;;;;;5054758;28;20424;-38
2022/05/31 04:00:54;;;;;;;5.17;4.67;;;10.70;99.90;;;;;;5058899;28;20432;-39
2022/05/31 04:03:20;;;;;;;5.50;5.00;;;10.60;99.90;;;;;;5054435;28;20208;-38
2022/05/31 04:05:46;;;;;;;4.57;4.17;;;10.90;99.90;;;;;;5069022;28;20785;-39
2022/05/31 04:08:12;;;;;;;5.27;4.77;;;10.80;99.90;;;;;;5061678;28;20181;-39
2022/05/31 04:10:44;;;;;;;5.00;4.23;;;10.90;99.90;;;;;;5048038;28;20774;-38
2022/05/31 04:13:11;;;;;;;6.27;5.50;;;11.00;99.90;;;;;;5055294;28;20998;-38
2022/05/31 04:15:36;;;;;;;6.10;5.33;;;10.90;99.90;;;;;;5049130;28;20826;-38
2022/05/31 04:18:04;;;;;;;4.93;4.43;;;11.20;99.90;;;;;;5055556;28;20435;-39
2022/05/31 04:20:31;;;;;;;5.80;5.20;;;10.90;99.90;;;;;;5053206;28;20192;-38
2022/05/31 04:23:58;;;;;;;7.80;5.17;;;10.80;99.90;;;;;;5067904;28;21436;-39
2022/05/31 04:25:43;;;;;;;6.33;5.53;;;10.80;99.90;;;;;;5053801;28;20900;-39
2022/05/31 04:28:09;;;;;;;5.00;4.57;;;10.90;99.90;;;;;;5065765;28;20434;-38
2022/05/31 04:30:36;;;;;;;5.63;4.80;;;10.90;99.90;;;;;;5073091;28;20913;-38
2022/05/31 04:33:01;;;;;;;5.50;4.50;;;11.10;99.90;;;;;;5064371;28;20481;-38
2022/05/31 04:35:27;;;;;;;4.93;4.53;;;11.00;99.90;;;;;;5072728;28;20914;-39
2022/05/31 04:37:53;;;;;;;5.90;4.50;;;11.00;99.90;;;;;;5067886;28;20201;-38
2022/05/31 04:40:19;;;;;;;7.23;4.77;;;11.00;99.90;;;;;;5052609;28;20423;-38
2022/05/31 04:42:44;;;;;;;4.77;4.33;;;11.10;99.90;;;;;;5053072;28;20216;-38
2022/05/31 04:45:10;;;;;;;4.83;4.33;;;11.20;99.90;;;;;;5068201;28;20188;-38
2022/05/31 04:47:37;;;;;;;10.40;4.40;;;11.30;99.90;;;;;;5067829;28;20273;-38
2022/05/31 04:50:03;;;;;;;4.40;3.90;;;11.20;99.90;;;;;;5072296;28;20438;-38
2022/05/31 04:52:28;;;;;;;5.27;4.03;;;10.90;99.90;;;;;;5068646;28;20488;-38
2022/05/31 04:54:54;;;;;;;6.00;4.27;;;11.20;99.90;;;;;;5053582;28;20436;-38
2022/05/31 04:57:20;;;;;;;7.03;5.00;;;11.20;99.90;;;;;;5050363;28;20304;-38
2022/05/31 04:59:46;;;;;;;7.43;4.60;;;11.10;99.90;;;;;;5046054;28;20872;-38
2022/05/31 05:02:12;;;;;;;4.57;4.10;;;11.30;99.90;;;;;;5051909;28;20785;-39
2022/05/31 05:04:38;;;;;;;3.83;3.53;;;11.30;99.90;;;;;;5061244;28;20431;-38
2022/05/31 05:07:04;;;;;;;4.20;3.90;;;11.20;99.90;;;;;;5049571;28;20263;-39
2022/05/31 05:09:30;;;;;;;8.67;4.70;;;11.40;99.90;;;;;;5053708;28;20428;-38
2022/05/31 05:11:55;;;;;;;6.63;4.40;;;11.30;99.90;;;;;;5056033;28;20196;-38
2022/05/31 05:14:21;;;;;;;6.40;4.10;;;11.30;99.90;;;;;;5067972;28;20209;-38
2022/05/31 05:16:48;;;;;;;5.37;4.30;;;11.30;99.90;;;;;;5066941;28;20891;-39
2022/05/31 05:19:14;;;;;;;6.13;4.50;;;11.50;99.90;;;;;;5068181;28;20792;-39
2022/05/31 05:21:40;;;;;;;4.43;4.03;;;11.40;99.90;;;;;;5071639;28;20964;-38
2022/05/31 05:24:06;;;;;;;8.23;4.77;;;11.50;99.90;;;;;;5059019;28;20467;-39
2022/05/31 05:26:31;;;;;;;6.23;3.53;;;11.60;99.90;;;;;;5058692;28;20427;-39
2022/05/31 05:31:42;;;;;;;4.40;3.70;;;11.50;99.90;;;;;;5068628;28;20672;-38
2022/05/31 05:34:08;;;;;;;5.33;3.70;;;11.50;99.90;;;;;;5062206;28;20515;-38
2022/05/31 05:36:34;;;;;;;6.53;4.07;;;11.50;99.90;;;;;;5050939;28;20458;-39
2022/05/31 05:39:00;;;;;;;5.37;3.37;;;11.50;99.90;;;;;;5048909;28;20440;-39
2022/05/31 05:41:29;;;;;;;4.30;3.33;;;11.50;99.90;;;;;;5051450;28;20467;-38
2022/05/31 05:43:55;;;;;;;3.93;3.57;;;11.50;99.90;;;;;;5062129;28;20299;-38
2022/05/31 05:46:23;;;;;;;6.83;6.10;;;11.50;99.90;;;;;;5071408;28;20558;-39
2022/05/31 05:48:50;;;;;;;6.30;5.27;;;11.50;99.90;;;;;;5056961;28;20181;-39
2022/05/31 05:51:23;;;;;;;7.17;5.63;;;11.40;99.90;;;;;;5071311;28;20431;-38
2022/05/31 05:53:49;;;;;;;5.87;5.37;;;11.40;99.90;;;;;;5063501;28;20585;-38
2022/05/31 05:56:15;;;;;;;7.30;5.90;;;11.40;99.90;;;;;;5056101;28;20447;-38
2022/05/31 05:58:42;;;;;;;7.63;6.07;;;11.30;99.90;;;;;;5057632;28;20419;-38
2022/05/31 06:01:24;;;;;;;7.10;5.77;;;11.40;99.90;;;;;;5058803;28;20436;-38
2022/05/31 06:04:09;;;;;;;6.53;5.67;;;11.40;99.90;;;;;;5060752;28;20852;-39
2022/05/31 06:06:36;;;;;;;6.53;5.80;;;11.60;99.90;;;;;;5070575;28;20806;-38
2022/05/31 06:09:05;;;;;;;7.73;5.90;;;11.70;99.90;;;;;;5061312;28;20443;-38
2022/05/31 06:11:53;;;;;;;7.93;6.13;;;11.80;99.90;;;;;;5051021;28;20417;-38
2022/05/31 06:14:32;;;;;;;8.10;6.60;;;11.90;99.90;;;;;;5053129;28;20412;-38
2022/05/31 06:17:06;;;;;;;7.13;6.23;;;11.80;99.90;;;;;;5067621;28;20430;-38
2022/05/31 06:19:36;;;;;;;6.63;5.50;;;11.80;99.90;;;;;;5061290;28;20455;-38
2022/05/31 06:22:04;;;;;;;6.33;5.33;;;11.90;99.90;;;;;;5051183;28;20419;-38
2022/05/31 06:24:35;;;;;;;6.17;4.10;;;12.00;99.90;;;;;;5050038;28;20986;-39
2022/05/31 06:27:01;;;;;;;5.30;4.07;;;12.10;99.90;;;;;;5056898;28;20886;-38
2022/05/31 06:29:29;;;;;;;4.43;4.03;;;12.20;99.90;;;;;;5058737;28;20451;-39
2022/05/31 06:31:55;;;;;;;8.00;5.20;;;12.20;99.90;;;;;;5069582;28;20195;-38
2022/05/31 06:34:23;;;;;;;4.87;4.37;;;12.20;99.90;;;;;;5069068;28;20428;-38
2022/05/31 06:36:49;;;;;;;5.83;5.27;;;12.30;99.90;;;;;;5065540;28;20427;-38
2022/05/31 06:39:15;;;;;;;6.23;5.10;;;12.30;99.90;;;;;;5048344;28;20520;-38
2022/05/31 06:41:41;;;;;;;6.30;5.10;;;12.40;99.90;;;;;;5045656;28;20812;-39
2022/05/31 06:44:06;;;;;;;10.10;5.50;;;12.50;99.90;;;;;;5051967;28;20472;-38
2022/05/31 06:46:32;;;;;;;6.50;4.73;;;12.50;99.90;;;;;;5049390;28;20276;-38
2022/05/31 06:49:00;;;;;;;6.10;5.50;;;12.50;99.90;;;;;;5043447;28;20221;-39
2022/05/31 06:56:58;;;;;;;4.77;4.30;;;12.50;99.90;;;;;;5047565;28;20975;-38
2022/05/31 06:59:24;;;;;;;6.87;4.97;;;12.50;99.90;;;;;;5046147;28;20930;-38
2022/05/31 07:01:51;;;;;;;7.97;4.33;;;12.50;99.90;;;;;;5048656;28;20420;-38
2022/05/31 07:04:17;;;;;;;4.63;4.10;;;12.60;99.90;;;;;;5050758;28;20266;-39
2022/05/31 07:06:42;;;;;;;6.17;5.00;;;12.50;99.90;;;;;;5049021;28;20971;-38
2022/05/31 07:09:08;;;;;;;5.60;5.00;;;12.50;99.90;;;;;;5048806;28;20240;-39
2022/05/31 07:11:34;;;;;;;6.03;4.10;;;12.50;99.90;;;;;;5050213;28;20773;-39
2022/05/31 07:14:03;;;;;;;6.47;4.80;;;12.50;99.90;;;;;;5049046;28;20272;-38
2022/05/31 07:16:28;;;;;;;7.47;6.10;;;12.50;99.90;;;;;;5049817;28;20430;-38
2022/05/31 07:18:56;;;;;;;6.00;5.43;;;12.50;99.90;;;;;;5048671;28;20511;-39
2022/05/31 07:21:21;;;;;;;6.37;4.80;;;12.50;99.90;;;;;;5050074;28;20644;-39
2022/05/31 07:23:47;;;;;;;5.80;5.20;;;12.50;99.90;;;;;;5048489;28;20468;-38
2022/05/31 07:26:13;;;;;;;6.33;5.73;;;12.50;99.90;;;;;;5048596;28;20182;-38
2022/05/31 07:28:39;;;;;;;6.27;5.63;;;12.50;99.90;;;;;;5048541;28;20185;-39
2022/05/31 07:31:06;;;;;;;6.37;5.80;;;12.50;99.90;;;;;;5049831;28;20677;-38
2022/05/31 07:33:31;;;;;;;9.10;6.77;;;12.50;99.90;;;;;;5051180;28;20427;-39
2022/05/31 07:35:57;;;;;;;8.27;6.47;;;12.50;99.90;;;;;;5050680;28;20528;-38
2022/05/31 07:38:23;;;;;;;10.10;7.53;;;12.50;99.90;;;;;;5049091;28;20791;-38
2022/05/31 07:40:49;;;;;;;11.60;7.20;;;12.40;99.90;;;;;;5048365;28;20272;-38
2022/05/31 07:43:16;;;;;;;10.93;7.33;;;12.40;99.90;;;;;;5055019;28;20768;-39
2022/05/31 07:45:42;;;;;;;13.17;8.47;;;12.40;99.90;;;;;;5061632;28;20444;-39
2022/05/31 07:48:08;;;;;;;11.87;9.20;;;12.40;99.90;;;;;;5054779;28;20452;-38
2022/05/31 07:50:34;;;;;;;11.60;9.23;;;12.40;99.90;;;;;;5069208;28;20434;-39
2022/05/31 07:53:01;;;;;;;9.90;8.90;;;12.40;99.90;;;;;;5059246;28;20423;-38
2022/05/31 07:55:28;;;;;;;9.33;8.40;;;12.40;99.90;;;;;;5048876;28;20958;-38
2022/05/31 08:01:05;;;;;;;14.10;7.97;;;12.40;99.90;;;;;;5026160;28;20486;-39
2022/05/31 08:03:31;;;;;;;14.67;9.20;;;12.40;99.90;;;;;;5016601;28;20465;-39
2022/05/31 08:05:57;;;;;;;9.20;7.63;;;12.40;99.90;;;;;;5038266;28;20966;-39
2022/05/31 08:08:23;;;;;;;8.73;7.80;;;12.40;99.90;;;;;;5068291;28;20416;-39
2022/05/31 08:10:49;;;;;;;8.80;7.90;;;12.40;99.90;;;;;;5052973;28;20486;-39
2022/05/31 08:13:14;;;;;;;11.40;8.17;;;12.30;99.90;;;;;;5058795;28;20423;-39
2022/05/31 08:15:40;;;;;;;9.40;8.23;;;12.30;99.90;;;;;;5051530;28;20526;-38
2022/05/31 08:18:06;;;;;;;9.40;7.97;;;12.30;99.90;;;;;;5047191;28;20188;-38
2022/05/31 08:20:32;;;;;;;11.40;8.40;;;12.30;99.90;;;;;;5051935;28;20243;-39
2022/05/31 08:22:58;;;;;;;14.03;8.10;;;12.40;99.90;;;;;;5049800;28;20842;-39
2022/05/31 08:25:23;;;;;;;8.93;8.00;;;12.40;99.90;;;;;;5063725;28;20672;-39
2022/05/31 08:27:49;;;;;;;10.30;8.47;;;12.50;99.90;;;;;;5051796;28;20584;-40
2022/05/31 08:30:15;;;;;;;11.37;8.57;;;12.50;99.90;;;;;;5062742;28;20189;-39
2022/05/31 08:32:41;;;;;;;11.53;8.07;;;12.60;99.90;;;;;;5067669;28;20742;-39
2022/05/31 08:35:07;;;;;;;12.27;8.87;;;12.60;99.90;;;;;;5051736;28;20194;-38
2022/05/31 08:37:32;;;;;;;10.33;8.30;;;12.60;99.90;;;;;;5067606;28;20796;-38
2022/05/31 08:39:58;;;;;;;11.63;8.90;;;12.60;99.90;;;;;;5061103;28;20451;-39
2022/05/31 08:42:50;;;;;;;11.23;8.30;;;12.70;99.90;;;;;;5056240;28;20205;-39
2022/05/31 08:45:57;;;;;;;9.37;7.47;;;12.90;99.90;;;;;;5048664;28;20695;-39
2022/05/31 08:48:26;;;;;;;11.17;8.70;;;13.10;99.90;;;;;;5043632;28;20416;-39
2022/05/31 08:56:59;;;;;;;8.23;7.33;;;13.20;99.90;;;;;;5048899;28;20443;-39
2022/05/31 08:59:29;;;;;;;12.40;8.00;;;13.20;99.90;;;;;;5053167;28;20424;-38
2022/05/31 09:02:01;;;;;;;7.50;6.70;;;13.20;99.90;;;;;;5049808;28;20428;-38
2022/05/31 09:04:43;;;;;;;8.20;7.30;;;13.30;99.90;;;;;;5044886;28;20460;-39
2022/05/31 09:07:17;;;;;;;8.50;6.90;;;13.20;99.90;;;;;;5057555;28;20427;-39
2022/05/31 09:10:06;;;;;;;10.37;8.60;;;13.20;99.90;;;;;;5068084;28;20533;-39
2022/05/31 09:12:48;;;;;;;8.60;6.73;;;13.20;99.90;;;;;;5051006;28;20431;-39
2022/05/31 09:15:40;;;;;;;7.87;6.80;;;13.30;99.90;;;;;;5064872;28;20477;-39
2022/05/31 09:18:17;;;;;;;9.60;6.50;;;13.30;99.90;;;;;;5069485;28;20424;-39
2022/05/31 09:20:51;;;;;;;8.57;6.47;;;13.30;99.90;;;;;;5062053;28;20520;-38
2022/05/31 09:23:21;;;;;;;11.00;6.40;;;13.40;99.90;;;;;;5044783;28;20459;-39
2022/05/31 09:25:56;;;;;;;8.20;6.90;;;13.40;99.90;;;;;;5047924;28;20466;-39
2022/05/31 09:28:48;;;;;;;9.17;6.53;;;13.40;99.90;;;;;;5048290;28;20998;-38
2022/05/31 09:31:29;;;;;;;9.57;6.67;;;13.50;99.90;;;;;;5058839;28;20500;-38
2022/05/31 09:34:54;;;;;;;8.10;6.77;;;13.60;99.90;;;;;;5067609;28;20430;-39
2022/05/31 09:37:42;;;;;;;12.57;6.70;;;13.40;99.90;;;;;;5025912;28;20436;-39
2022/05/31 09:40:26;;;;;;;9.27;6.27;;;13.60;99.90;;;;;;5013728;28;20496;-39
2022/05/31 09:43:03;;;;;;;9.60;6.17;;;13.60;99.90;;;;;;5038706;28;20474;-38
2022/05/31 09:45:34;;;;;;;9.10;5.80;;;13.70;99.90;;;;;;5054621;28;20419;-39
2022/05/31 09:48:04;;;;;;;8.77;6.60;;;13.80;99.90;;;;;;5070557;28;20423;-38
2022/05/31 09:50:30;;;;;;;8.07;6.00;;;13.90;99.90;;;;;;5054475;28;20439;-38
2022/05/31 09:52:57;;;;;;;6.47;5.53;;;14.00;99.90;;;;;;5050805;28;20447;-39
2022/05/31 09:58:38;;;;;;;7.53;5.63;;;14.20;99.90;;;;;;5054640;28;20427;-39
2022/05/31 10:01:05;;;;;;;7.33;6.40;;;14.30;99.90;;;;;;5052484;28;20531;-39
2022/05/31 10:03:46;;;;;;;7.70;7.00;;;14.30;99.90;;;;;;5055034;28;20531;-39
2022/05/31 10:06:17;;;;;;;7.73;7.00;;;14.30;99.90;;;;;;5066578;28;20514;-39
2022/05/31 10:08:47;;;;;;;6.67;5.97;;;14.40;99.90;;;;;;5070120;28;20430;-39
2022/05/31 10:11:21;;;;;;;7.67;6.33;;;14.50;99.90;;;;;;5058153;28;20447;-39
2022/05/31 10:14:00;;;;;;;7.43;5.70;;;14.50;99.90;;;;;;5053544;28;20421;-39
2022/05/31 10:16:30;;;;;;;8.93;6.50;;;14.50;99.90;;;;;;5056579;28;20403;-39
2022/05/31 10:18:58;;;;;;;9.17;5.53;;;14.50;99.90;;;;;;5058638;28;20428;-39
2022/05/31 10:21:36;;;;;;;7.60;5.60;;;14.40;99.90;;;;;;5067797;28;20407;-39
2022/05/31 10:24:28;;;;;;;7.60;5.80;;;14.40;99.90;;;;;;5050563;28;21040;-39
2022/05/31 10:27:21;;;;;;;6.13;5.57;;;14.40;99.90;;;;;;5044697;28;20436;-39
2022/05/31 10:29:57;;;;;;;6.90;5.57;;;14.30;99.90;;;;;;5055551;28;20431;-39
2022/05/31 10:32:46;;;;;;;8.10;5.57;;;14.30;99.90;;;;;;5068516;28;20929;-39
2022/05/31 10:35:19;;;;;;;7.63;5.27;;;14.30;99.90;;;;;;5048945;28;20413;-39
2022/05/31 10:38:04;;;;;;;7.17;6.37;;;14.30;99.90;;;;;;5069644;28;20452;-39
2022/05/31 10:40:38;;;;;;;6.37;5.30;;;14.40;99.90;;;;;;5065195;28;20789;-38
2022/05/31 10:43:18;;;;;;;7.47;5.33;;;14.40;99.90;;;;;;5050664;28;20511;-40
2022/05/31 10:45:44;;;;;;;7.13;4.73;;;14.50;99.90;;;;;;5056630;28;20735;-39
2022/05/31 10:48:10;;;;;;;7.47;5.47;;;14.50;99.90;;;;;;5069179;28;20423;-38
2022/05/31 10:50:49;;;;;;;6.03;3.97;;;14.70;99.90;;;;;;5059837;28;20762;-38
2022/05/31 10:53:17;;;;;;;7.80;5.03;;;14.90;99.90;;;;;;5068437;28;20561;-39
2022/05/31 10:56:23;;;;;;;5.37;4.40;;;15.10;99.90;;;;;;5063082;28;20581;-39
2022/05/31 10:58:58;;;;;;;8.20;4.60;;;15.30;99.90;;;;;;5051452;28;20419;-38
2022/05/31 11:01:26;;;;;;;6.50;4.90;;;15.50;99.90;;;;;;5049916;28;20440;-38
2022/05/31 11:04:24;;;;;;;8.93;4.60;;;15.80;99.90;;;;;;5058698;28;20803;-39
2022/05/31 11:07:29;;;;;;;7.57;5.40;;;16.10;99.90;;;;;;5061368;28;20923;-40
2022/05/31 11:13:11;;;;;;;7.07;4.80;;;16.30;99.90;;;;;;5050500;28;20416;-39
2022/05/31 11:16:01;;;;;;;5.93;5.37;;;16.40;99.90;;;;;;5051544;28;20521;-39
2022/05/31 11:18:35;;;;;;;5.40;4.60;;;16.60;99.90;;;;;;5068868;28;20426;-40
2022/05/31 11:21:08;;;;;;;5.40;4.90;;;16.70;99.90;;;;;;5056109;28;20427;-39
2022/05/31 11:24:24;;;;;;;6.37;5.10;;;16.80;99.90;;;;;;5056377;28;20554;-39
2022/05/31 11:27:19;;;;;;;6.50;3.90;;;16.70;99.90;;;;;;5046773;28;20941;-39
2022/05/31 11:30:06;;;;;;;5.97;4.97;;;16.80;99.90;;;;;;5053098;28;20420;-39
2022/05/31 11:32:53;;;;;;;5.33;4.87;;;16.80;99.90;;;;;;5068684;28;21062;-39
2022/05/31 11:35:34;;;;;;;5.27;4.00;;;16.80;99.90;;;;;;5058603;28;20427;-39
2022/05/31 11:38:08;;;;;;;4.60;4.20;;;16.80;99.90;;;;;;5048876;28;20869;-42
2022/05/31 11:41:04;;;;;;;5.10;4.60;;;16.80;99.90;;;;;;5067816;28;20435;-40
2022/05/31 11:43:32;;;;;;;6.60;5.10;;;16.90;99.90;;;;;;5051188;28;20471;-39
2022/05/31 11:46:22;;;;;;;7.00;4.30;;;17.10;99.90;;;;;;5049773;28;20532;-41
2022/05/31 11:48:56;;;;;;;5.93;5.07;;;17.20;99.90;;;;;;5068592;28;20416;-39
2022/05/31 11:51:33;;;;;;;5.07;4.20;;;17.30;99.90;;;;;;5049785;28;20428;-39
2022/05/31 11:54:08;;;;;;;4.77;4.30;;;17.30;99.90;;;;;;5047774;28;20418;-40
2022/05/31 11:56:53;;;;;;;6.93;5.13;;;17.30;99.90;;;;;;5057767;28;20451;-41
2022/05/31 11:59:26;;;;;;;5.97;5.10;;;17.40;99.90;;;;;;5045975;28;20887;-39
2022/05/31 12:01:55;;;;;;;5.90;4.20;;;17.50;99.90;;;;;;5045443;28;20527;-39
2022/05/31 12:04:33;;;;;;;5.10;4.37;;;17.60;99.90;;;;;;5049174;28;20456;-39
2022/05/31 12:07:10;;;;;;;5.50;4.90;;;17.70;99.90;;;;;;5066929;28;20442;-39
2022/05/31 12:09:44;;;;;;;6.87;5.70;;;17.70;99.90;;;;;;5053440;28;20759;-40
2022/05/31 12:12:20;;;;;;;6.17;5.10;;;17.70;99.90;;;;;;5045988;28;20427;-39
2022/05/31 12:14:59;;;;;;;5.70;4.30;;;17.60;99.90;;;;;;5054734;28;20786;-39
2022/05/31 12:18:08;;;;;;;4.37;3.97;;;17.60;99.90;;;;;;5058414;28;20468;-41
2022/05/31 12:20:46;;;;;;;4.90;4.07;;;17.80;99.90;;;;;;5052529;28;20431;-40
2022/05/31 12:23:36;;;;;;;4.60;4.20;;;17.90;99.90;;;;;;5068560;28;20978;-40
2022/05/31 12:26:14;;;;;;;4.40;4.00;;;17.90;99.90;;;;;;5051332;28;20439;-42
2022/05/31 12:28:51;;;;;;;5.97;3.83;;;18.00;99.90;;;;;;5050997;28;20439;-40
2022/05/31 12:31:22;;;;;;;5.50;4.20;;;18.10;99.80;;;;;;5061120;28;20426;-40
2022/05/31 12:33:48;;;;;;;4.43;4.03;;;18.20;99.90;;;;;;5068351;28;20423;-40
2022/05/31 12:36:15;;;;;;;5.10;3.90;;;18.30;99.70;;;;;;5063350;28;20806;-39
2022/05/31 12:39:07;;;;;;;4.00;3.70;;;18.40;99.10;;;;;;5066484;28;20189;-39
2022/05/31 12:41:38;;;;;;;3.37;3.07;;;18.40;98.30;;;;;;5061562;28;20590;-39
2022/05/31 12:44:28;;;;;;;3.50;3.20;;;18.40;97.80;;;;;;5056399;28;20494;-39
2022/05/31 12:46:55;;;;;;;3.70;3.40;;;18.40;98.40;;;;;;5057609;28;20427;-39
2022/05/31 12:49:27;;;;;;;4.70;4.27;;;18.30;96.10;;;;;;5072083;28;20476;-39
2022/05/31 12:52:09;;;;;;;5.20;4.00;;;18.30;96.60;;;;;;5070909;28;20418;-40
2022/05/31 12:54:49;;;;;;;4.43;3.57;;;18.30;97.10;;;;;;5070547;28;20948;-39
2022/05/31 12:57:25;;;;;;;4.37;3.23;;;18.30;96.90;;;;;;5060820;28;20483;-39
2022/05/31 12:59:54;;;;;;;3.60;3.30;;;18.20;96.30;;;;;;5053730;28;20435;-40
2022/05/31 13:02:23;;;;;;;5.63;3.23;;;18.20;97.30;;;;;;5052551;28;20431;-40
2022/05/31 13:04:55;;;;;;;3.83;3.30;;;18.20;97.10;;;;;;5067587;28;20520;-39
2022/05/31 13:07:38;;;;;;;4.67;2.90;;;18.30;96.80;;;;;;5063324;28;20506;-39
2022/05/31 13:10:28;;;;;;;3.03;2.73;;;18.30;96.50;;;;;;5072286;28;20492;-40
2022/05/31 13:21:14;;;;;;;2.67;2.00;;;18.70;91.70;;;;;;5065167;28;20530;-39
2022/05/31 13:23:41;;;;;;;3.30;2.83;;;18.80;91.00;;;;;;5071778;28;20576;-39
2022/05/31 13:26:18;;;;;;;2.90;2.20;;;18.70;89.30;;;;;;5071694;28;20240;-39
2022/05/31 13:29:01;;;;;;;2.80;2.60;;;18.80;91.00;;;;;;5053512;28;20424;-40
2022/05/31 13:31:29;;;;;;;2.83;2.40;;;18.70;90.10;;;;;;5053718;28;20831;-41
2022/05/31 13:34:00;;;;;;;2.73;2.43;;;18.80;91.50;;;;;;5068631;28;20431;-39
2022/05/31 13:36:29;;;;;;;2.40;2.07;;;18.80;90.60;;;;;;5069100;28;20459;-40
2022/05/31 13:38:58;;;;;;;2.57;2.37;;;18.90;90.90;;;;;;5071275;28;21265;-40
2022/05/31 13:41:25;;;;;;;3.00;2.27;;;19.00;90.30;;;;;;5070322;28;20449;-40